Time;durP1;ratioP1;P1;durP2;ratioP2;P2;SDS_P1;SDS_P2;PMS_P1;PMS_P2;Temp;Humidity;BMP_temperature;BMP_pressure;BME280_temperature;BME280_humidity;BME280_pressure;Samples;Min_cycle;Max_cycle;Signal;HPM_P1;HPM_P2
2023/10/16 00:05:14;;;;;;;;;;;5.80;72.80;;;;;;5131888;22;19930;-83
2023/10/16 00:11:03;;;;;;;;;;;5.80;72.80;;;;;;5140603;23;19911;-84
2023/10/16 00:16:33;;;;;;;;;;;5.80;72.90;;;;;;5124177;23;19911;-84
2023/10/16 00:19:09;;;;;;;;;;;5.80;72.90;;;;;;5123700;23;19916;-86
2023/10/16 00:21:30;;;;;;;;;;;5.80;72.90;;;;;;5155818;23;19922;-84
2023/10/16 00:23:50;;;;;;;;;;;5.70;72.90;;;;;;5169128;22;19969;-84
2023/10/16 00:26:10;;;;;;;;;;;5.70;72.90;;;;;;5168556;23;19929;-84
2023/10/16 00:28:30;;;;;;;;;;;5.70;73.00;;;;;;5166488;23;20004;-84
2023/10/16 00:30:49;;;;;;;;;;;5.70;73.00;;;;;;5168183;23;19934;-83
2023/10/16 00:33:10;;;;;;;;;;;5.70;73.00;;;;;;5168649;23;19915;-84
2023/10/16 00:35:29;;;;;;;;;;;5.70;73.70;;;;;;5168214;23;19914;-85
2023/10/16 00:37:49;;;;;;;;;;;5.70;73.10;;;;;;5167966;23;19913;-83
2023/10/16 00:40:10;;;;;;;;;;;5.70;73.20;;;;;;5167113;23;20462;-83
2023/10/16 00:42:32;;;;;;;;;;;5.60;73.10;;;;;;5145575;23;19937;-84
2023/10/16 00:44:56;;;;;;;;;;;5.60;73.00;;;;;;5170041;22;19926;-83
2023/10/16 00:47:15;;;;;;;;;;;5.60;73.00;;;;;;5169128;23;20087;-83
2023/10/16 00:49:35;;;;;;;;;;;5.60;73.00;;;;;;5170117;23;20019;-84
2023/10/16 00:51:54;;;;;;;;;;;5.60;73.00;;;;;;5186263;22;19925;-84
2023/10/16 00:54:19;;;;;;;;;;;5.60;73.00;;;;;;5146574;22;19927;-84
2023/10/16 00:56:38;;;;;;;;;;;5.70;73.20;;;;;;5164025;23;19914;-83
2023/10/16 00:58:57;;;;;;;;;;;5.70;73.20;;;;;;5162332;23;20007;-83
2023/10/16 01:01:18;;;;;;;;;;;5.50;73.10;;;;;;5141469;23;19934;-83
2023/10/16 01:03:40;;;;;;;;;;;5.60;74.00;;;;;;5141453;22;19915;-83
2023/10/16 01:06:00;;;;;;;;;;;5.60;73.90;;;;;;5142276;23;20009;-83
2023/10/16 01:08:19;;;;;;;;;;;5.60;73.40;;;;;;5162887;23;19910;-84
2023/10/16 01:10:43;;;;;;;;;;;5.60;73.30;;;;;;5165457;23;19986;-84
2023/10/16 01:13:07;;;;;;;;;;;5.50;73.90;;;;;;5140285;23;19914;-83
2023/10/16 01:15:27;;;;;;;;;;;5.50;73.30;;;;;;5163905;22;20130;-83
2023/10/16 01:17:46;;;;;;;;;;;5.60;73.40;;;;;;5164187;23;19910;-83
2023/10/16 01:20:09;;;;;;;;;;;5.50;73.40;;;;;;5164165;23;19973;-84
2023/10/16 01:22:29;;;;;;;;;;;5.50;73.40;;;;;;5163164;23;19990;-85
2023/10/16 01:24:48;;;;;;;;;;;5.50;73.40;;;;;;5163880;22;19914;-84
2023/10/16 01:27:14;;;;;;;;;;;5.60;73.50;;;;;;5142234;23;19930;-84
2023/10/16 01:29:33;;;;;;;;;;;5.50;73.40;;;;;;5165892;23;20189;-83
2023/10/16 01:31:53;;;;;;;;;;;5.40;73.40;;;;;;5142070;23;20006;-84
2023/10/16 01:34:12;;;;;;;;;;;5.50;74.20;;;;;;5165230;22;20663;-83
2023/10/16 01:36:33;;;;;;;;;;;5.50;74.30;;;;;;5143538;23;20490;-84
2023/10/16 01:38:52;;;;;;;;;;;5.40;73.50;;;;;;5166157;23;19914;-83
2023/10/16 01:41:15;;;;;;;;;;;5.50;73.70;;;;;;5166653;23;19975;-83
2023/10/16 01:43:35;;;;;;;;;;;5.40;73.60;;;;;;5166460;22;19918;-84
2023/10/16 01:45:55;;;;;;;;;;;5.40;73.90;;;;;;5165725;23;19914;-83
2023/10/16 01:48:20;;;;;;;;;;;5.50;74.70;;;;;;5164472;23;19961;-84
2023/10/16 01:50:39;;;;;;;;;;;5.60;74.10;;;;;;5142337;23;19915;-84
2023/10/16 01:52:59;;;;;;;;;;;5.50;74.00;;;;;;5167390;23;19918;-83
2023/10/16 01:55:18;;;;;;;;;;;5.60;74.10;;;;;;5144899;23;20351;-83
2023/10/16 01:57:38;;;;;;;;;;;5.50;74.80;;;;;;5166418;23;19915;-83
2023/10/16 01:59:57;;;;;;;;;;;5.60;74.20;;;;;;5143852;23;19911;-83
2023/10/16 02:02:20;;;;;;;;;;;5.60;74.10;;;;;;5166818;23;19957;-84
2023/10/16 02:04:40;;;;;;;;;;;5.50;74.00;;;;;;5164096;22;19934;-83
2023/10/16 02:07:00;;;;;;;;;;;5.50;74.10;;;;;;5141322;23;19930;-83
2023/10/16 02:09:23;;;;;;;;;;;5.60;74.20;;;;;;5162063;23;19915;-83
2023/10/16 02:11:42;;;;;;;;;;;5.60;74.30;;;;;;5166081;23;19957;-83
2023/10/16 02:14:01;;;;;;;;;;;5.60;74.40;;;;;;5165026;22;19915;-83
2023/10/16 02:16:23;;;;;;;;;;;5.70;74.50;;;;;;5142299;23;19911;-83
2023/10/16 02:18:44;;;;;;;;;;;5.60;74.40;;;;;;5141412;23;19976;-83
2023/10/16 02:21:04;;;;;;;;;;;5.60;74.40;;;;;;5164231;23;19910;-83
2023/10/16 02:23:26;;;;;;;;;;;5.60;74.40;;;;;;5164353;23;19918;-83
2023/10/16 02:25:45;;;;;;;;;;;5.70;74.60;;;;;;5164345;23;19970;-83
2023/10/16 02:28:08;;;;;;;;;;;5.80;75.50;;;;;;5141168;23;19914;-83
2023/10/16 02:32:46;;;;;;;;;;;5.70;74.50;;;;;;5165524;23;19911;-83
2023/10/16 02:35:13;;;;;;;;;;;5.70;74.50;;;;;;5164715;22;19915;-83
2023/10/16 02:37:32;;;;;;;;;;;5.70;74.50;;;;;;5164162;23;20028;-83
2023/10/16 02:39:53;;;;;;;;;;;5.70;74.50;;;;;;5166242;23;19966;-83
2023/10/16 02:42:14;;;;;;;;;;;5.80;74.60;;;;;;5164714;23;19977;-84
2023/10/16 02:44:38;;;;;;;;;;;5.80;74.50;;;;;;5163914;22;19927;-83
2023/10/16 02:46:58;;;;;;;;;;;5.80;74.60;;;;;;5140702;23;19919;-83
2023/10/16 02:49:17;;;;;;;;;;;5.80;74.50;;;;;;5165231;23;19911;-83
2023/10/16 02:51:36;;;;;;;;;;;5.70;74.60;;;;;;5162060;23;19954;-84
2023/10/16 02:53:56;;;;;;;;;;;5.70;74.70;;;;;;5164517;22;19914;-84
2023/10/16 02:56:17;;;;;;;;;;;5.80;74.70;;;;;;5168067;23;19910;-84
2023/10/16 02:58:55;;;;;;;;;;;5.70;75.40;;;;;;5165844;23;19961;-84
2023/10/16 03:01:15;;;;;;;;;;;5.80;74.60;;;;;;5166452;23;19957;-84
2023/10/16 03:03:35;;;;;;;;;;;5.90;74.90;;;;;;5144432;22;19912;-83
2023/10/16 03:05:59;;;;;;;;;;;5.80;74.80;;;;;;5184578;22;19911;-84
2023/10/16 03:08:21;;;;;;;;;;;5.80;74.80;;;;;;5156577;22;19927;-83
2023/10/16 03:10:41;;;;;;;;;;;5.90;74.80;;;;;;5166241;23;20437;-84
2023/10/16 03:13:05;;;;;;;;;;;5.90;74.80;;;;;;5162959;23;20382;-84
2023/10/16 03:15:28;;;;;;;;;;;5.80;74.70;;;;;;5163950;22;20264;-84
2023/10/16 03:17:51;;;;;;;;;;;5.80;74.70;;;;;;5164509;23;19910;-83
2023/10/16 03:20:20;;;;;;;;;;;5.80;74.70;;;;;;5165435;23;20315;-84
2023/10/16 03:22:40;;;;;;;;;;;5.80;74.70;;;;;;5166775;23;19935;-84
2023/10/16 03:25:00;;;;;;;;;;;5.90;74.70;;;;;;5168939;22;19910;-84
2023/10/16 03:27:31;;;;;;;;;;;5.90;75.50;;;;;;5169342;23;19914;-84
2023/10/16 03:29:51;;;;;;;;;;;5.80;74.70;;;;;;5167884;23;20006;-84
2023/10/16 03:32:11;;;;;;;;;;;5.80;74.70;;;;;;5167342;23;19910;-84
2023/10/16 03:34:31;;;;;;;;;;;5.90;75.40;;;;;;5167237;22;20295;-84
2023/10/16 03:36:55;;;;;;;;;;;5.90;74.70;;;;;;5166773;23;20465;-84
2023/10/16 03:39:18;;;;;;;;;;;6.00;75.60;;;;;;5168100;23;19962;-84
2023/10/16 03:41:39;;;;;;;;;;;5.90;74.70;;;;;;5169178;23;19914;-84
2023/10/16 03:44:05;;;;;;;;;;;5.90;74.80;;;;;;5167526;22;19918;-84
2023/10/16 03:46:26;;;;;;;;;;;5.90;74.70;;;;;;5166940;23;19919;-85
2023/10/16 03:48:45;;;;;;;;;;;6.00;74.70;;;;;;5164745;23;19915;-84
2023/10/16 03:51:06;;;;;;;;;;;5.90;74.60;;;;;;5141949;23;19919;-84
2023/10/16 03:53:25;;;;;;;;;;;5.90;75.20;;;;;;5162571;23;19918;-84
2023/10/16 03:55:49;;;;;;;;;;;5.90;74.50;;;;;;5162712;23;19911;-84
2023/10/16 03:58:09;;;;;;;;;;;5.90;74.40;;;;;;5159624;23;20552;-84
2023/10/16 04:00:43;;;;;;;;;;;5.80;74.40;;;;;;5161786;23;19934;-85
2023/10/16 04:03:08;;;;;;;;;;;5.90;74.40;;;;;;5163130;23;19977;-84
2023/10/16 04:05:32;;;;;;;;;;;5.80;75.00;;;;;;5163202;22;19990;-84
2023/10/16 04:07:51;;;;;;;;;;;5.80;74.20;;;;;;5163773;23;19917;-84
2023/10/16 04:10:22;;;;;;;;;;;5.70;74.10;;;;;;5163396;23;19910;-84
2023/10/16 04:12:51;;;;;;;;;;;5.70;74.80;;;;;;5165128;23;19980;-84
2023/10/16 04:15:23;;;;;;;;;;;5.80;74.10;;;;;;5140559;23;20298;-84
2023/10/16 04:17:46;;;;;;;;;;;5.70;74.00;;;;;;5162868;23;19922;-85
2023/10/16 04:22:58;;;;;;;;;;;5.60;73.90;;;;;;5154076;23;19986;-84
2023/10/16 04:25:31;;;;;;;;;;;5.60;73.90;;;;;;5140813;23;19915;-84
2023/10/16 04:28:08;;;;;;;;;;;5.50;74.60;;;;;;5152323;22;19923;-84
2023/10/16 04:32:56;;;;;;;;;;;5.50;74.00;;;;;;5187774;22;19906;-84
2023/10/16 04:35:32;;;;;;;;;;;5.60;75.00;;;;;;5160415;22;19961;-84
2023/10/16 04:38:27;;;;;;;;;;;5.50;74.20;;;;;;5168103;23;19914;-84
2023/10/16 04:46:17;;;;;;;;;;;5.50;74.40;;;;;;5163992;23;19931;-85
2023/10/16 04:48:47;;;;;;;;;;;5.50;75.10;;;;;;5163204;23;19914;-85
2023/10/16 04:51:16;;;;;;;;;;;5.50;74.30;;;;;;5163287;23;19929;-84
2023/10/16 04:53:48;;;;;;;;;;;5.40;74.30;;;;;;5162080;22;19994;-84
2023/10/16 04:56:16;;;;;;;;;;;5.50;74.50;;;;;;5163797;23;20071;-85
2023/10/16 04:58:39;;;;;;;;;;;5.50;74.40;;;;;;5160676;23;19911;-84
2023/10/16 05:03:29;;;;;;;;;;;5.40;74.30;;;;;;5161553;23;19991;-85
2023/10/16 05:08:39;;;;;;;;;;;5.50;74.60;;;;;;5161598;23;19919;-84
2023/10/16 06:14:39;;;;;;;;;;;5.60;75.40;;;;;;5158453;22;20247;-86
2023/10/16 06:16:58;;;;;;;;;;;5.50;75.30;;;;;;5157362;23;19977;-86
2023/10/16 06:19:17;;;;;;;;;;;5.50;76.10;;;;;;5138160;23;19915;-86
2023/10/16 06:21:37;;;;;;;;;;;5.60;75.40;;;;;;5160957;23;19934;-86
2023/10/16 06:23:56;;;;;;;;;;;5.60;75.40;;;;;;5138655;23;19915;-86
2023/10/16 06:26:16;;;;;;;;;;;5.60;75.50;;;;;;5138330;23;20346;-86
2023/10/16 06:28:35;;;;;;;;;;;5.50;75.40;;;;;;5160965;23;20350;-86
2023/10/16 06:30:54;;;;;;;;;;;5.70;75.40;;;;;;5159675;23;19914;-87
2023/10/16 06:33:14;;;;;;;;;;;5.60;75.20;;;;;;5158560;23;19981;-86
2023/10/16 06:35:33;;;;;;;;;;;5.70;75.20;;;;;;5158375;23;20342;-86
2023/10/16 06:37:53;;;;;;;;;;;5.70;75.30;;;;;;5160989;23;20324;-86
2023/10/16 06:40:24;;;;;;;;;;;5.70;75.10;;;;;;5160728;23;19915;-87
2023/10/16 06:42:46;;;;;;;;;;;5.80;75.30;;;;;;5159842;23;19972;-86
2023/10/16 06:45:09;;;;;;;;;;;5.80;75.20;;;;;;5158576;22;19961;-89
2023/10/16 06:47:35;;;;;;;;;;;5.70;75.20;;;;;;5137499;23;19915;-86
2023/10/16 06:49:56;;;;;;;;;;;5.80;75.30;;;;;;5161252;23;19954;-87
2023/10/16 06:52:17;;;;;;;;;;;5.80;75.30;;;;;;5157664;23;20046;-87
2023/10/16 06:54:40;;;;;;;;;;;5.90;75.40;;;;;;5135318;23;19969;-86
2023/10/16 06:56:59;;;;;;;;;;;6.00;75.50;;;;;;5156186;23;20067;-86
2023/10/16 06:59:19;;;;;;;;;;;6.00;75.50;;;;;;5133495;23;20240;-86
2023/10/16 07:01:38;;;;;;;;;;;6.00;75.50;;;;;;5156646;23;20323;-87
2023/10/16 07:04:01;;;;;;;;;;;6.00;75.40;;;;;;5158057;22;19918;-85
2023/10/16 07:06:32;;;;;;;;;;;6.00;75.50;;;;;;5159549;23;19953;-86
2023/10/16 07:08:52;;;;;;;;;;;6.00;75.50;;;;;;5135180;23;19911;-86
2023/10/16 07:11:13;;;;;;;;;;;6.00;76.20;;;;;;5154547;23;19970;-86
2023/10/16 07:13:32;;;;;;;;;;;6.20;76.40;;;;;;5160375;22;19919;-86
2023/10/16 07:15:53;;;;;;;;;;;6.20;76.40;;;;;;5157001;23;19914;-86
2023/10/16 07:18:14;;;;;;;;;;;6.10;76.30;;;;;;5159335;23;20117;-86
2023/10/16 07:20:51;;;;;;;;;;;6.20;76.40;;;;;;5136490;23;19965;-86
2023/10/16 07:23:10;;;;;;;;;;;6.30;76.40;;;;;;5158468;23;19911;-86
2023/10/16 07:25:47;;;;;;;;;;;6.40;75.80;;;;;;5137016;23;20071;-87
2023/10/16 07:28:10;;;;;;;;;;;6.40;76.60;;;;;;5158682;23;19914;-85
2023/10/16 07:30:33;;;;;;;;;;;6.40;76.50;;;;;;5158993;23;19965;-86
2023/10/16 07:32:54;;;;;;;;;;;6.60;76.50;;;;;;5162222;23;19953;-87
2023/10/16 07:34:55;;;;;;;;;;;6.50;75.60;;;;;;5185685;22;19944;-88
2023/10/16 07:36:58;;;;;;;;;;;6.60;75.60;;;;;;5142357;22;19990;-87
2023/10/16 07:38:59;;;;;;;;;;;6.60;75.60;;;;;;5157517;23;20618;-87
2023/10/16 07:41:00;;;;;;;;;;;6.70;75.70;;;;;;5156214;23;19943;-88
2023/10/16 07:43:00;;;;;;;;;;;6.60;75.50;;;;;;5160177;23;20356;-87
2023/10/16 07:45:01;;;;;;;;;;;6.70;75.60;;;;;;5159932;22;19930;-88
2023/10/16 07:47:01;;;;;;;;;;;6.70;75.70;;;;;;5158009;23;19912;-86
2023/10/16 07:49:09;;;;;;;;;;;6.70;75.60;;;;;;5134983;23;20226;-87
2023/10/16 07:51:10;;;;;;;;;;;6.80;75.70;;;;;;5133873;23;19911;-87
2023/10/16 07:53:17;;;;;;;;;;;6.90;75.70;;;;;;5134656;23;19923;-88
2023/10/16 07:55:18;;;;;;;;;;;7.00;75.70;;;;;;5108532;23;20433;-88
2023/10/16 07:57:23;;;;;;;;;;;7.00;75.70;;;;;;5134307;23;19907;-87
2023/10/16 07:59:25;;;;;;;;;;;7.00;75.70;;;;;;5108457;23;19927;-87
2023/10/16 08:04:18;;;;;;;;;;;7.10;75.70;;;;;;5129742;23;20280;-87
2023/10/16 08:06:23;;;;;;;;;;;7.10;75.70;;;;;;5108198;23;20467;-87
2023/10/16 08:08:35;;;;;;;;;;;7.20;75.70;;;;;;5108243;23;19923;-89
2023/10/16 08:10:43;;;;;;;;;;;7.30;75.70;;;;;;5160956;23;19903;-88
2023/10/16 08:12:44;;;;;;;;;;;7.40;75.90;;;;;;5131652;23;19912;-88
2023/10/16 08:14:51;;;;;;;;;;;7.40;76.00;;;;;;5132514;23;19910;-89
2023/10/16 08:16:58;;;;;;;;;;;7.40;76.00;;;;;;5109090;23;20255;-88
2023/10/16 08:18:58;;;;;;;;;;;7.60;76.00;;;;;;5134675;23;20339;-87
2023/10/16 08:21:06;;;;;;;;;;;7.60;75.90;;;;;;5158476;23;19908;-88
2023/10/16 08:23:06;;;;;;;;;;;7.70;75.80;;;;;;5131049;23;19935;-87
2023/10/16 08:25:07;;;;;;;;;;;7.60;75.50;;;;;;5132788;23;19954;-88
2023/10/16 08:27:13;;;;;;;;;;;7.70;75.50;;;;;;5133934;23;19908;-87
2023/10/16 08:31:23;;;;;;;;;;;7.90;75.20;;;;;;5132732;23;19943;-88
2023/10/16 08:33:30;;;;;;;;;;;7.90;75.10;;;;;;5161170;23;20700;-88
2023/10/16 08:35:38;;;;;;;;;;;8.00;75.50;;;;;;5133068;23;19915;-89
2023/10/16 08:37:41;;;;;;;;;;;8.10;75.00;;;;;;5134738;23;20327;-88
2023/10/16 08:39:48;;;;;;;;;;;8.00;74.50;;;;;;5133506;23;19923;-88
2023/10/16 08:44:03;;;;;;;;;;;8.10;74.20;;;;;;5157309;22;19912;-89
2023/10/16 08:46:10;;;;;;;;;;;8.20;73.90;;;;;;5134785;23;19962;-88
2023/10/16 08:48:17;;;;;;;;;;;8.20;73.70;;;;;;5109742;23;19908;-88
2023/10/16 08:50:18;;;;;;;;;;;8.20;73.60;;;;;;5133547;23;20287;-87
2023/10/16 08:52:21;;;;;;;;;;;8.30;73.60;;;;;;5136158;23;19908;-89
2023/10/16 08:56:45;;;;;;;;;;;8.30;73.50;;;;;;5160884;23;19907;-86
2023/10/16 08:58:46;;;;;;;;;;;8.30;73.50;;;;;;5131342;23;20332;-87
2023/10/16 09:00:48;;;;;;;;;;;8.30;73.50;;;;;;5159212;23;19968;-88
2023/10/16 09:02:53;;;;;;;;;;;8.40;73.50;;;;;;5133361;23;19918;-87
2023/10/16 09:04:55;;;;;;;;;;;8.50;73.60;;;;;;5135236;23;19939;-85
2023/10/16 09:06:55;;;;;;;;;;;8.60;73.60;;;;;;5158724;23;19954;-85
2023/10/16 09:08:56;;;;;;;;;;;8.60;73.40;;;;;;5158251;23;20403;-86
2023/10/16 09:10:56;;;;;;;;;;;8.70;73.50;;;;;;5131701;23;19939;-86
2023/10/16 09:13:19;;;;;;;;;;;8.70;73.00;;;;;;5131303;23;20217;-86
2023/10/16 09:15:24;;;;;;;;;;;8.60;72.90;;;;;;5158317;22;19914;-89
2023/10/16 09:17:25;;;;;;;;;;;8.60;72.80;;;;;;5158813;23;19908;-87
2023/10/16 09:19:35;;;;;;;;;;;8.80;72.70;;;;;;5134502;23;20241;-87
2023/10/16 09:21:38;;;;;;;;;;;8.80;72.40;;;;;;5113838;23;19914;-86
2023/10/16 09:23:51;;;;;;;;;;;8.80;72.40;;;;;;5160859;22;19919;-86
2023/10/16 09:26:02;;;;;;;;;;;8.90;72.40;;;;;;5164282;23;20013;-86
2023/10/16 09:28:05;;;;;;;;;;;8.90;72.10;;;;;;5165368;23;19914;-87
2023/10/16 09:30:14;;;;;;;;;;;8.90;71.90;;;;;;5138101;23;19963;-86
2023/10/16 09:32:20;;;;;;;;;;;8.90;71.60;;;;;;5139026;23;19916;-86
2023/10/16 09:34:41;;;;;;;;;;;9.00;71.40;;;;;;5163757;22;19907;-86
2023/10/16 09:37:20;;;;;;;;;;;9.00;71.60;;;;;;5167844;23;20373;-87
2023/10/16 09:39:46;;;;;;;;;;;9.10;71.70;;;;;;5142467;23;20272;-88
2023/10/16 09:42:12;;;;;;;;;;;9.10;71.40;;;;;;5174033;23;19923;-86
2023/10/16 09:44:38;;;;;;;;;;;9.20;71.40;;;;;;5174282;22;19907;-87
2023/10/16 09:46:59;;;;;;;;;;;9.20;71.40;;;;;;5173626;23;19907;-86
2023/10/16 09:49:21;;;;;;;;;;;9.30;71.30;;;;;;5151199;23;19908;-87
2023/10/16 09:51:44;;;;;;;;;;;9.30;71.30;;;;;;5147648;23;20351;-87
2023/10/16 09:54:09;;;;;;;;;;;9.30;71.20;;;;;;5173097;22;19916;-86
2023/10/16 09:56:35;;;;;;;;;;;9.30;71.00;;;;;;5146154;23;20257;-86
2023/10/16 09:58:58;;;;;;;;;;;9.40;70.60;;;;;;5182498;22;19892;-89
2023/10/16 10:01:06;;;;;;;;;;;9.40;70.70;;;;;;5128410;23;19912;-86
2023/10/16 10:03:12;;;;;;;;;;;9.50;70.30;;;;;;5142276;23;19918;-86
2023/10/16 10:05:13;;;;;;;;;;;9.60;70.20;;;;;;5144530;23;19916;-88
2023/10/16 10:07:19;;;;;;;;;;;9.50;70.50;;;;;;5144360;23;20264;-85
2023/10/16 10:09:22;;;;;;;;;;;9.70;70.30;;;;;;5138922;23;19935;-87
2023/10/16 10:11:47;;;;;;;;;;;9.70;70.00;;;;;;5168388;23;20007;-87
2023/10/16 10:14:09;;;;;;;;;;;9.50;69.90;;;;;;5166851;22;19915;-87
2023/10/16 10:16:20;;;;;;;;;;;9.70;69.10;;;;;;5137981;23;19908;-86
2023/10/16 10:18:34;;;;;;;;;;;9.70;68.80;;;;;;5165247;23;19903;-87
2023/10/16 10:20:40;;;;;;;;;;;9.70;68.60;;;;;;5163965;23;19915;-86
2023/10/16 10:22:44;;;;;;;;;;;9.90;68.50;;;;;;5136941;23;19927;-87
2023/10/16 10:24:50;;;;;;;;;;;9.80;68.60;;;;;;5138461;23;19951;-88
2023/10/16 10:26:51;;;;;;;;;;;9.80;68.30;;;;;;5162723;23;20244;-86
2023/10/16 10:29:03;;;;;;;;;;;9.80;68.00;;;;;;5137008;23;19939;-86
2023/10/16 10:31:05;;;;;;;;;;;10.00;68.20;;;;;;5136607;23;19911;-86
2023/10/16 10:33:06;;;;;;;;;;;9.90;68.00;;;;;;5140307;23;19963;-88
2023/10/16 10:36:03;;;;;;;;;;;10.00;67.90;;;;;;5160872;22;19914;-84
2023/10/16 10:37:44;;;;;;;;;;;10.00;67.70;;;;;;5156067;23;20069;-86
2023/10/16 10:39:46;;;;;;;;;;;10.10;68.20;;;;;;5157979;23;19947;-84
2023/10/16 10:42:16;;;;;;;;;;;10.00;67.20;;;;;;5139428;23;19907;-84
2023/10/16 10:44:43;;;;;;;;;;;10.20;66.90;;;;;;5173756;22;19896;-86
2023/10/16 10:47:17;;;;;;;;;;;10.10;66.80;;;;;;5182773;22;19908;-86
2023/10/16 10:49:37;;;;;;;;;;;10.20;67.00;;;;;;5186034;22;19896;-86
2023/10/16 10:52:02;;;;;;;;;;;10.30;66.90;;;;;;5161478;22;19927;-86
2023/10/16 10:54:23;;;;;;;;;;;10.30;67.10;;;;;;5178730;22;20177;-86
2023/10/16 10:56:38;;;;;;;;;;;10.30;66.90;;;;;;5165544;23;20222;-85
2023/10/16 10:59:08;;;;;;;;;;;10.40;66.90;;;;;;5163556;23;19908;-85
2023/10/16 11:01:34;;;;;;;;;;;10.40;66.80;;;;;;5144750;23;19904;-83
2023/10/16 11:03:55;;;;;;;;;;;10.40;66.30;;;;;;5143892;23;19912;-84
2023/10/16 11:06:17;;;;;;;;;;;10.50;66.20;;;;;;5165137;23;19914;-85
2023/10/16 11:08:41;;;;;;;;;;;10.50;66.20;;;;;;5167262;23;19991;-85
2023/10/16 11:11:17;;;;;;;;;;;10.60;66.30;;;;;;5144361;23;19908;-85
2023/10/16 11:13:47;;;;;;;;;;;10.70;65.80;;;;;;5144302;22;19954;-85
2023/10/16 11:16:08;;;;;;;;;;;10.70;65.80;;;;;;5144781;23;19912;-84
2023/10/16 11:18:28;;;;;;;;;;;10.70;65.30;;;;;;5144472;23;19908;-85
2023/10/16 11:20:51;;;;;;;;;;;10.80;65.30;;;;;;5141023;23;19983;-84
2023/10/16 11:23:12;;;;;;;;;;;10.80;65.00;;;;;;5140578;23;19904;-84
2023/10/16 11:25:33;;;;;;;;;;;10.80;64.60;;;;;;5166702;22;20006;-85
2023/10/16 11:27:54;;;;;;;;;;;10.70;64.10;;;;;;5162699;23;19975;-86
2023/10/16 11:30:18;;;;;;;;;;;10.70;64.10;;;;;;5165377;23;20363;-84
2023/10/16 11:32:45;;;;;;;;;;;10.80;64.40;;;;;;5163007;23;19932;-84
2023/10/16 11:35:14;;;;;;;;;;;10.80;64.50;;;;;;5165581;22;19955;-84
2023/10/16 11:37:35;;;;;;;;;;;10.80;64.30;;;;;;5159839;23;19908;-85
2023/10/16 11:39:56;;;;;;;;;;;10.80;64.00;;;;;;5160790;23;19908;-86
2023/10/16 11:42:17;;;;;;;;;;;10.90;64.00;;;;;;5139251;23;19904;-85
2023/10/16 11:44:38;;;;;;;;;;;10.90;64.10;;;;;;5163468;22;20120;-85
2023/10/16 11:47:03;;;;;;;;;;;11.00;64.90;;;;;;5140534;23;19907;-87
2023/10/16 11:49:29;;;;;;;;;;;10.90;63.30;;;;;;5139846;23;20406;-85
2023/10/16 11:51:57;;;;;;;;;;;10.90;63.10;;;;;;5165158;23;19927;-85
2023/10/16 11:54:20;;;;;;;;;;;10.90;62.80;;;;;;5164463;22;19911;-85
2023/10/16 11:56:41;;;;;;;;;;;10.90;62.40;;;;;;5141312;23;19908;-84
2023/10/16 11:58:42;;;;;;;;;;;11.00;62.30;;;;;;5109396;23;19932;-85
2023/10/16 12:00:53;;;;;;;;;;;11.00;62.20;;;;;;5162275;23;20357;-84
2023/10/16 12:02:53;;;;;;;;;;;10.80;62.00;;;;;;5140121;23;19918;-87
2023/10/16 12:05:00;;;;;;;;;;;10.80;61.80;;;;;;5165409;22;19935;-85
2023/10/16 12:07:01;;;;;;;;;;;10.80;62.30;;;;;;5135192;23;19908;-86
2023/10/16 12:09:02;;;;;;;;;;;10.90;62.50;;;;;;5110353;23;19955;-87
2023/10/16 12:11:04;;;;;;;;;;;10.80;62.40;;;;;;5163496;23;20470;-85
2023/10/16 12:13:07;;;;;;;;;;;10.90;62.60;;;;;;5160110;23;19946;-89
2023/10/16 12:15:10;;;;;;;;;;;10.80;62.30;;;;;;5135713;23;19908;-87
2023/10/16 12:17:13;;;;;;;;;;;10.80;62.60;;;;;;5163772;23;19908;-84
2023/10/16 12:19:15;;;;;;;;;;;10.80;62.10;;;;;;5162055;23;19907;-86
2023/10/16 12:21:19;;;;;;;;;;;10.90;62.20;;;;;;5138119;23;19915;-85
2023/10/16 12:23:20;;;;;;;;;;;10.90;61.30;;;;;;5168162;23;19916;-84
2023/10/16 12:25:41;;;;;;;;;;;10.90;61.90;;;;;;5142187;22;19971;-86
2023/10/16 12:28:02;;;;;;;;;;;10.90;61.30;;;;;;5164238;23;19907;-85
2023/10/16 12:30:04;;;;;;;;;;;10.80;61.00;;;;;;5112948;23;20050;-86
2023/10/16 12:32:24;;;;;;;;;;;10.80;61.10;;;;;;5168109;23;19912;-85
2023/10/16 12:34:45;;;;;;;;;;;10.80;61.00;;;;;;5172164;22;19955;-90
2023/10/16 12:37:07;;;;;;;;;;;10.80;61.10;;;;;;5184227;22;19895;-87
2023/10/16 12:39:28;;;;;;;;;;;10.90;61.60;;;;;;5176395;23;19934;-86
2023/10/16 12:41:49;;;;;;;;;;;11.00;61.80;;;;;;5151220;23;20512;-86
2023/10/16 12:44:10;;;;;;;;;;;10.90;61.80;;;;;;5170107;22;20348;-86
2023/10/16 12:46:32;;;;;;;;;;;11.00;61.80;;;;;;5148708;23;19908;-85
2023/10/16 12:48:53;;;;;;;;;;;11.00;61.70;;;;;;5169584;23;20379;-85
2023/10/16 12:51:13;;;;;;;;;;;10.90;61.40;;;;;;5168782;23;19934;-85
2023/10/16 12:53:34;;;;;;;;;;;10.90;60.90;;;;;;5172449;23;19919;-85
2023/10/16 12:55:55;;;;;;;;;;;11.00;61.10;;;;;;5173221;23;19920;-87
2023/10/16 12:58:18;;;;;;;;;;;10.90;61.10;;;;;;5147493;23;19988;-86
2023/10/16 13:00:22;;;;;;;;;;;11.00;61.00;;;;;;5142244;23;19908;-86
2023/10/16 13:02:46;;;;;;;;;;;10.80;60.90;;;;;;5169721;23;19907;-85
2023/10/16 13:05:11;;;;;;;;;;;10.90;61.00;;;;;;5148835;23;19916;-86
2023/10/16 13:07:33;;;;;;;;;;;10.80;61.10;;;;;;5170160;23;19935;-85
2023/10/16 13:09:54;;;;;;;;;;;11.00;61.50;;;;;;5169140;23;19912;-85
2023/10/16 13:12:18;;;;;;;;;;;10.90;61.40;;;;;;5165898;23;19931;-85
2023/10/16 13:14:38;;;;;;;;;;;10.90;61.50;;;;;;5149408;23;19912;-87
2023/10/16 13:16:59;;;;;;;;;;;10.90;61.20;;;;;;5172388;23;19908;-86
2023/10/16 13:19:20;;;;;;;;;;;11.00;61.50;;;;;;5173907;23;19911;-87
2023/10/16 13:21:46;;;;;;;;;;;10.90;61.50;;;;;;5152293;23;19912;-87
2023/10/16 13:24:11;;;;;;;;;;;10.90;61.50;;;;;;5171312;22;20035;-85
2023/10/16 13:26:36;;;;;;;;;;;10.90;62.40;;;;;;5145756;23;20010;-86
2023/10/16 13:28:56;;;;;;;;;;;10.90;61.60;;;;;;5145456;23;19907;-88
2023/10/16 13:31:18;;;;;;;;;;;11.00;61.80;;;;;;5165587;23;19907;-86
2023/10/16 13:33:44;;;;;;;;;;;11.00;62.10;;;;;;5154918;22;20019;-86
2023/10/16 13:36:05;;;;;;;;;;;11.10;62.20;;;;;;5160981;23;19959;-86
2023/10/16 13:38:26;;;;;;;;;;;11.00;62.10;;;;;;5142420;23;19911;-85
2023/10/16 13:40:47;;;;;;;;;;;11.10;61.20;;;;;;5142746;23;19904;-86
2023/10/16 13:43:10;;;;;;;;;;;11.10;61.10;;;;;;5165948;23;19943;-85
2023/10/16 13:45:31;;;;;;;;;;;11.20;60.80;;;;;;5167636;22;19907;-85
2023/10/16 13:47:53;;;;;;;;;;;11.10;60.50;;;;;;5167183;23;19969;-86
2023/10/16 13:50:15;;;;;;;;;;;11.10;60.10;;;;;;5143757;23;20261;-84
2023/10/16 13:52:36;;;;;;;;;;;11.10;60.20;;;;;;5166885;23;20257;-85
2023/10/16 13:54:57;;;;;;;;;;;11.10;59.80;;;;;;5145666;23;19935;-86
2023/10/16 13:57:01;;;;;;;;;;;11.10;59.40;;;;;;5115010;23;20459;-85
2023/10/16 13:59:03;;;;;;;;;;;11.00;59.20;;;;;;5139709;23;19908;-84
2023/10/16 14:01:04;;;;;;;;;;;11.00;58.60;;;;;;5163526;23;19919;-85
2023/10/16 14:03:09;;;;;;;;;;;11.00;58.80;;;;;;5166210;23;19907;-85
2023/10/16 14:05:13;;;;;;;;;;;11.00;57.70;;;;;;5115937;23;19991;-86
2023/10/16 14:07:19;;;;;;;;;;;11.00;57.80;;;;;;5141963;23;19908;-84
2023/10/16 14:09:32;;;;;;;;;;;10.90;57.70;;;;;;5138744;23;19935;-84
2023/10/16 14:11:33;;;;;;;;;;;10.90;57.70;;;;;;5164081;23;19908;-85
2023/10/16 14:13:37;;;;;;;;;;;10.80;57.50;;;;;;5139989;23;19912;-85
2023/10/16 14:15:41;;;;;;;;;;;10.80;57.60;;;;;;5136450;23;19910;-86
2023/10/16 14:18:03;;;;;;;;;;;10.80;57.70;;;;;;5163648;23;20006;-86
2023/10/16 14:20:36;;;;;;;;;;;10.80;57.80;;;;;;5162810;23;19911;-86
2023/10/16 14:22:59;;;;;;;;;;;10.70;57.80;;;;;;5161617;23;19907;-85
2023/10/16 14:25:19;;;;;;;;;;;10.70;57.60;;;;;;5140009;23;19987;-86
2023/10/16 14:27:40;;;;;;;;;;;10.60;57.70;;;;;;5139530;23;19982;-86
2023/10/16 14:30:01;;;;;;;;;;;10.50;57.60;;;;;;5162164;23;19904;-85
2023/10/16 14:32:21;;;;;;;;;;;10.50;57.60;;;;;;5159756;23;19911;-86
2023/10/16 14:34:42;;;;;;;;;;;10.60;57.70;;;;;;5162152;22;19912;-85
2023/10/16 14:37:05;;;;;;;;;;;10.50;57.80;;;;;;5158304;23;19904;-87
2023/10/16 14:39:29;;;;;;;;;;;10.40;57.80;;;;;;5141451;23;19987;-87
2023/10/16 14:41:50;;;;;;;;;;;10.40;57.80;;;;;;5166529;23;20386;-87
2023/10/16 14:44:13;;;;;;;;;;;10.50;58.10;;;;;;5164775;22;19915;-86
2023/10/16 14:46:36;;;;;;;;;;;10.40;58.10;;;;;;5141792;23;20123;-85
2023/10/16 14:48:56;;;;;;;;;;;10.30;58.10;;;;;;5163091;23;20220;-87
2023/10/16 14:50:57;;;;;;;;;;;10.40;58.30;;;;;;5139083;23;19935;-86
2023/10/16 14:52:58;;;;;;;;;;;10.30;58.30;;;;;;5138744;23;19904;-86
2023/10/16 14:55:02;;;;;;;;;;;10.40;58.60;;;;;;5135666;23;19954;-86
2023/10/16 14:57:04;;;;;;;;;;;10.40;58.80;;;;;;5163640;23;19938;-87
2023/10/16 14:59:32;;;;;;;;;;;10.30;58.90;;;;;;5162864;23;19919;-86
2023/10/16 15:01:53;;;;;;;;;;;10.30;59.00;;;;;;5165396;23;19903;-86
2023/10/16 15:04:17;;;;;;;;;;;10.40;59.20;;;;;;5143541;23;19912;-86
2023/10/16 15:06:38;;;;;;;;;;;10.30;59.20;;;;;;5145921;23;19904;-85
2023/10/16 15:08:58;;;;;;;;;;;10.30;59.30;;;;;;5171618;23;19963;-86
2023/10/16 15:11:20;;;;;;;;;;;10.30;59.00;;;;;;5187689;22;20088;-87